Time;durP1;ratioP1;P1;durP2;ratioP2;P2;SDS_P1;SDS_P2;PMS_P1;PMS_P2;Temp;Humidity;BMP_temperature;BMP_pressure;BME280_temperature;BME280_humidity;BME280_pressure;Samples;Min_cycle;Max_cycle;Signal;HPM_P1;HPM_P2
2023/09/02 00:01:57;;;;;;;7.00;2.92;;;;;;;14.57;100.00;101307.69;5067756;28;20558;-66
2023/09/02 00:04:24;;;;;;;8.20;3.03;;;;;;;14.57;100.00;101305.03;5068806;28;20064;-66
2023/09/02 00:06:51;;;;;;;8.88;3.03;;;;;;;14.51;100.00;101316.72;5066495;28;20520;-66
2023/09/02 00:09:17;;;;;;;9.77;4.00;;;;;;;14.68;100.00;101310.75;5068156;28;20049;-66
2023/09/02 00:11:44;;;;;;;8.30;3.70;;;;;;;14.71;100.00;101305.31;5068714;28;20064;-66
2023/09/02 00:14:11;;;;;;;8.85;3.28;;;;;;;14.71;100.00;101301.81;5065598;28;20477;-66
2023/09/02 00:16:38;;;;;;;7.18;3.00;;;;;;;14.75;100.00;101299.00;5067747;28;20063;-66
2023/09/02 00:19:04;;;;;;;7.90;2.83;;;;;;;14.56;100.00;101272.59;5069088;28;20053;-66
2023/09/02 00:21:33;;;;;;;9.02;3.60;;;;;;;14.49;100.00;101292.22;5067720;28;20048;-67
2023/09/02 00:24:07;;;;;;;7.47;2.80;;;;;;;14.50;100.00;101286.06;5068366;28;20466;-66
2023/09/02 00:26:34;;;;;;;7.10;2.60;;;;;;;14.52;100.00;101283.31;5050326;28;20144;-66
2023/09/02 00:29:01;;;;;;;7.80;2.67;;;;;;;14.44;100.00;101273.13;5067649;28;20064;-66
2023/09/02 00:31:29;;;;;;;7.70;3.10;;;;;;;14.44;100.00;101292.44;5059306;28;20049;-66
2023/09/02 00:33:56;;;;;;;6.82;2.50;;;;;;;14.33;100.00;101280.69;5066465;28;20060;-66
2023/09/02 00:36:22;;;;;;;9.43;3.80;;;;;;;14.21;100.00;101272.38;5066691;28;20084;-66
2023/09/02 00:38:49;;;;;;;9.75;3.72;;;;;;;14.11;100.00;101243.88;5061532;28;20056;-66
2023/09/02 00:41:39;;;;;;;7.78;3.15;;;;;;;14.13;100.00;101257.84;5049849;28;20457;-66
2023/09/02 00:44:06;;;;;;;10.18;4.07;;;;;;;13.86;100.00;101240.56;5062321;28;20059;-66
2023/09/02 00:46:33;;;;;;;9.68;3.40;;;;;;;13.66;100.00;101248.44;5066567;28;20060;-66
2023/09/02 00:49:01;;;;;;;6.78;2.50;;;;;;;13.81;100.00;101250.44;5067945;28;20060;-66
2023/09/02 00:51:28;;;;;;;7.85;3.05;;;;;;;13.85;100.00;101246.75;5054894;28;20056;-66
2023/09/02 00:53:55;;;;;;;8.95;2.85;;;;;;;13.96;100.00;101272.59;5062396;28;20044;-66
2023/09/02 00:56:24;;;;;;;8.85;3.47;;;;;;;14.05;100.00;101288.00;5067704;28;20049;-66
2023/09/02 00:58:52;;;;;;;7.30;2.72;;;;;;;14.18;100.00;101284.81;5068349;28;20378;-66
2023/09/02 01:01:19;;;;;;;9.80;3.38;;;;;;;14.06;100.00;101286.25;5060316;28;20055;-65
2023/09/02 01:03:46;;;;;;;9.45;2.90;;;;;;;14.14;100.00;101288.53;5067430;28;20045;-65
2023/09/02 01:06:13;;;;;;;8.43;3.40;;;;;;;14.21;100.00;101295.22;5067065;28;20079;-66
2023/09/02 01:08:40;;;;;;;8.55;3.10;;;;;;;14.35;100.00;101292.84;5049124;28;20063;-66
2023/09/02 01:11:06;;;;;;;7.82;3.15;;;;;;;14.46;100.00;101291.50;5060504;28;20048;-65
2023/09/02 01:13:33;;;;;;;8.23;3.17;;;;;;;14.47;100.00;101316.94;5066491;28;20044;-66
2023/09/02 01:16:00;;;;;;;9.35;3.42;;;;;;;14.27;100.00;101294.97;5067712;28;20056;-66
2023/09/02 01:18:27;;;;;;;10.43;3.83;;;;;;;14.11;100.00;101288.66;5067967;28;20078;-66
2023/09/02 01:21:14;;;;;;;8.82;3.55;;;;;;;14.21;100.00;101298.72;5059798;28;20406;-66
2023/09/02 01:23:45;;;;;;;8.63;3.00;;;;;;;14.33;100.00;101309.66;5067290;28;20230;-66
2023/09/02 01:26:46;;;;;;;8.32;2.70;;;;;;;14.53;100.00;101311.38;5049955;28;20533;-66
2023/09/02 01:29:18;;;;;;;9.32;3.28;;;;;;;14.52;100.00;101312.31;5067540;28;20618;-66
2023/09/02 01:31:47;;;;;;;7.72;2.72;;;;;;;14.60;100.00;101318.13;5060878;28;20058;-66
2023/09/02 01:34:16;;;;;;;8.32;3.10;;;;;;;14.59;100.00;101306.75;5067196;28;20048;-66
2023/09/02 01:36:46;;;;;;;8.70;2.80;;;;;;;14.49;100.00;101291.38;5066197;28;20060;-66
2023/09/02 01:39:15;;;;;;;6.55;2.80;;;;;;;14.31;100.00;101303.59;5062802;28;20057;-66
2023/09/02 01:41:43;;;;;;;6.05;2.17;;;;;;;14.38;100.00;101297.13;5056107;28;20055;-66
2023/09/02 01:44:12;;;;;;;6.78;2.40;;;;;;;14.37;100.00;101300.69;5065428;28;20387;-66
2023/09/02 01:46:39;;;;;;;8.43;3.28;;;;;;;14.39;100.00;101309.38;5047666;28;20135;-66
2023/09/02 01:49:06;;;;;;;7.18;2.72;;;;;;;14.19;100.00;101315.53;5067750;28;20083;-66
2023/09/02 01:51:34;;;;;;;6.68;2.63;;;;;;;13.85;100.00;101309.06;5047886;28;20074;-66
2023/09/02 01:54:01;;;;;;;8.88;3.20;;;;;;;13.53;100.00;101313.00;5066403;28;20048;-66
2023/09/02 01:56:28;;;;;;;7.03;2.40;;;;;;;13.33;100.00;101306.78;5069665;28;20081;-66
2023/09/02 01:58:56;;;;;;;7.03;2.90;;;;;;;13.24;100.00;101317.63;5071061;28;20044;-66
2023/09/02 02:01:24;;;;;;;6.85;2.53;;;;;;;13.14;100.00;101324.16;5062843;28;20692;-66
2023/09/02 02:04:10;;;;;;;8.73;2.60;;;;;;;13.08;100.00;101328.78;5071572;28;20075;-66
2023/09/02 02:06:39;;;;;;;7.07;2.60;;;;;;;12.87;100.00;101329.56;5070563;28;20044;-67
2023/09/02 02:09:16;;;;;;;8.30;2.72;;;;;;;13.10;100.00;101333.94;5070553;28;20051;-66
2023/09/02 02:11:45;;;;;;;7.80;2.60;;;;;;;13.19;100.00;101340.63;5071001;28;20816;-66
2023/09/02 02:14:15;;;;;;;6.80;2.38;;;;;;;13.17;100.00;101316.16;5067347;28;20227;-66
2023/09/02 02:16:42;;;;;;;7.38;2.80;;;;;;;13.21;100.00;101338.78;5070933;28;20504;-65
2023/09/02 02:19:08;;;;;;;8.25;3.13;;;;;;;13.04;100.00;101332.41;5070852;28;20074;-66
2023/09/02 02:21:35;;;;;;;6.47;2.40;;;;;;;12.90;100.00;101329.47;5062885;28;20045;-66
2023/09/02 02:24:02;;;;;;;7.63;2.80;;;;;;;12.88;100.00;101345.28;5069267;28;20053;-66
2023/09/02 02:26:29;;;;;;;6.50;2.22;;;;;;;12.87;100.00;101340.97;5070150;28;20056;-66
2023/09/02 02:28:55;;;;;;;5.80;2.13;;;;;;;13.01;100.00;101350.94;5070092;28;20056;-66
2023/09/02 02:31:22;;;;;;;7.80;2.53;;;;;;;12.86;100.00;101357.63;5067950;28;20416;-66
2023/09/02 02:33:48;;;;;;;6.03;2.08;;;;;;;12.73;100.00;101351.13;5070061;28;20088;-66
2023/09/02 02:36:15;;;;;;;8.25;2.58;;;;;;;12.74;100.00;101363.34;5069400;28;20053;-65
2023/09/02 02:38:42;;;;;;;5.32;2.20;;;;;;;12.67;100.00;101361.84;5069583;28;20063;-66
2023/09/02 02:41:08;;;;;;;7.32;2.63;;;;;;;12.54;100.00;101354.41;5070236;28;20661;-66
2023/09/02 02:43:35;;;;;;;6.78;2.50;;;;;;;12.80;100.00;101367.50;5069512;28;20044;-66
2023/09/02 02:46:02;;;;;;;4.85;1.80;;;;;;;12.89;100.00;101369.78;5070247;28;20131;-66
2023/09/02 02:48:30;;;;;;;6.30;2.28;;;;;;;12.93;100.00;101374.03;5070182;28;20517;-66
2023/09/02 02:50:57;;;;;;;6.65;2.20;;;;;;;12.82;100.00;101361.28;5061976;28;20071;-66
2023/09/02 02:53:24;;;;;;;8.18;2.30;;;;;;;12.61;100.00;101368.19;5065741;28;20052;-66
2023/09/02 02:55:50;;;;;;;6.57;2.30;;;;;;;12.41;100.00;101370.66;5069626;28;20053;-66
2023/09/02 02:58:17;;;;;;;6.50;2.30;;;;;;;12.03;100.00;101372.84;5069842;28;20060;-66
2023/09/02 03:00:46;;;;;;;9.05;2.67;;;;;;;11.88;100.00;101375.03;5067216;28;20486;-65
2023/09/02 03:03:13;;;;;;;5.45;2.00;;;;;;;11.77;100.00;101364.91;5069266;28;20410;-66
2023/09/02 03:05:41;;;;;;;5.40;2.15;;;;;;;11.88;100.00;101363.66;5066998;28;20075;-66
2023/09/02 03:08:09;;;;;;;8.20;2.53;;;;;;;11.51;100.00;101341.25;5067909;28;20048;-66
2023/09/02 03:10:36;;;;;;;7.57;2.50;;;;;;;11.48;100.00;101349.22;5062296;28;20063;-66
2023/09/02 03:13:03;;;;;;;7.40;2.55;;;;;;;11.44;100.00;101337.97;5059479;28;20094;-66
2023/09/02 03:15:31;;;;;;;6.85;2.72;;;;;;;11.46;100.00;101354.50;5072007;28;20045;-66
2023/09/02 03:17:57;;;;;;;6.80;2.47;;;;;;;11.36;100.00;101342.59;5071275;28;20049;-66
2023/09/02 03:20:24;;;;;;;8.40;2.30;;;;;;;11.64;100.00;101360.09;5054347;28;20466;-66
2023/09/02 03:22:51;;;;;;;8.48;2.30;;;;;;;11.60;100.00;101348.84;5057457;28;20123;-66
2023/09/02 03:25:17;;;;;;;7.40;2.28;;;;;;;11.77;100.00;101353.53;5072081;28;20052;-65
2023/09/02 03:27:46;;;;;;;5.63;1.83;;;;;;;11.85;100.00;101354.13;5071777;28;20067;-66
2023/09/02 03:30:13;;;;;;;6.15;2.53;;;;;;;11.77;100.00;101348.28;5069973;28;20079;-66
2023/09/02 03:32:39;;;;;;;5.53;1.98;;;;;;;11.76;100.00;101336.09;5070934;28;20717;-65
2023/09/02 03:35:07;;;;;;;6.68;2.70;;;;;;;11.92;100.00;101346.97;5053752;28;20401;-66
2023/09/02 03:37:34;;;;;;;6.13;2.05;;;;;;;11.77;100.00;101328.16;5053820;28;20059;-66
2023/09/02 03:40:03;;;;;;;6.03;2.28;;;;;;;11.64;100.00;101339.09;5064423;28;20044;-65
2023/09/02 03:42:30;;;;;;;5.43;2.10;;;;;;;11.50;100.00;101342.16;5066083;28;20060;-66
2023/09/02 03:44:58;;;;;;;6.85;2.40;;;;;;;11.69;100.00;101345.91;5071452;28;20044;-65
2023/09/02 03:47:24;;;;;;;6.32;2.42;;;;;;;11.57;100.00;101338.44;5071667;28;20139;-66
2023/09/02 03:49:51;;;;;;;6.68;2.50;;;;;;;11.66;100.00;101348.63;5067575;28;20098;-65
2023/09/02 03:52:18;;;;;;;6.38;2.40;;;;;;;11.57;100.00;101347.16;5070436;28;20048;-65
2023/09/02 03:54:44;;;;;;;5.53;2.13;;;;;;;11.75;100.00;101348.31;5071178;28;20478;-66
2023/09/02 03:57:11;;;;;;;5.72;2.00;;;;;;;11.67;100.00;101321.50;5071262;28;20051;-65
2023/09/02 03:59:38;;;;;;;5.15;1.95;;;;;;;11.85;100.00;101350.66;5071447;28;20558;-65
2023/09/02 04:02:04;;;;;;;7.97;2.22;;;;;;;11.87;100.00;101365.44;5064893;28;20312;-66
2023/09/02 04:04:31;;;;;;;4.47;1.65;;;;;;;11.73;100.00;101363.25;5071239;28;20048;-66
2023/09/02 04:06:58;;;;;;;5.30;1.80;;;;;;;11.71;100.00;101364.22;5059831;28;20059;-65
2023/09/02 04:09:24;;;;;;;5.03;1.90;;;;;;;11.64;100.00;101360.94;5071408;28;20139;-66
2023/09/02 04:11:51;;;;;;;6.40;1.95;;;;;;;11.53;100.00;101355.19;5040403;28;20064;-66
2023/09/02 04:14:18;;;;;;;4.55;1.73;;;;;;;11.21;100.00;101350.03;5070890;28;20055;-66
2023/09/02 04:16:45;;;;;;;4.40;1.80;;;;;;;11.09;100.00;101360.88;5071499;28;20048;-66
2023/09/02 04:19:11;;;;;;;5.45;1.83;;;;;;;11.04;100.00;101360.16;5057451;28;20104;-66
2023/09/02 04:21:39;;;;;;;5.07;2.10;;;;;;;10.80;100.00;101364.34;5052160;28;20139;-65
2023/09/02 04:24:06;;;;;;;5.28;2.03;;;;;;;10.68;100.00;101356.81;5062464;28;20051;-65
2023/09/02 04:26:33;;;;;;;4.90;2.10;;;;;;;10.64;100.00;101354.31;5070494;28;20048;-65
2023/09/02 04:29:00;;;;;;;5.10;1.90;;;;;;;10.47;100.00;101359.16;5070617;28;20048;-66
2023/09/02 04:31:27;;;;;;;5.07;1.85;;;;;;;10.54;100.00;101362.47;5070987;28;20174;-65
2023/09/02 04:33:54;;;;;;;5.53;1.92;;;;;;;10.54;100.00;101360.69;5065897;28;20041;-66
2023/09/02 04:36:21;;;;;;;6.15;2.28;;;;;;;10.49;100.00;101359.97;5070056;28;20556;-66
2023/09/02 04:38:48;;;;;;;5.05;1.98;;;;;;;10.36;100.00;101358.59;5070172;28;20048;-65
2023/09/02 04:41:16;;;;;;;6.15;2.10;;;;;;;10.39;100.00;101367.22;5065017;28;20056;-65
2023/09/02 04:43:43;;;;;;;5.20;1.75;;;;;;;10.38;100.00;101378.59;5069496;28;20041;-66
2023/09/02 04:46:09;;;;;;;6.25;2.17;;;;;;;10.35;100.00;101369.94;5070184;28;20413;-66
2023/09/02 04:48:36;;;;;;;6.00;1.98;;;;;;;10.20;100.00;101379.03;5070288;28;20482;-65
2023/09/02 04:51:03;;;;;;;5.57;1.98;;;;;;;10.32;100.00;101386.56;5063703;28;20053;-65
2023/09/02 04:53:30;;;;;;;4.15;1.85;;;;;;;10.19;100.00;101370.31;5065660;28;20516;-66
2023/09/02 04:55:59;;;;;;;5.63;1.95;;;;;;;10.39;100.00;101380.31;5069255;28;20048;-65
2023/09/02 04:58:27;;;;;;;5.10;2.22;;;;;;;10.30;100.00;101371.78;5057036;28;20871;-66
2023/09/02 05:00:54;;;;;;;4.47;1.75;;;;;;;10.21;100.00;101355.41;5068691;28;20224;-66
2023/09/02 05:03:20;;;;;;;5.47;2.17;;;;;;;10.12;100.00;101363.53;5068936;28;20055;-65
2023/09/02 05:05:47;;;;;;;5.97;2.10;;;;;;;10.06;100.00;101371.53;5069692;28;20076;-66
2023/09/02 05:08:14;;;;;;;5.18;1.80;;;;;;;10.03;100.00;101356.75;5064129;28;20079;-66
2023/09/02 05:10:40;;;;;;;4.40;1.80;;;;;;;9.94;100.00;101333.47;5065809;28;20044;-66
2023/09/02 05:13:07;;;;;;;6.15;2.53;;;;;;;10.15;100.00;101359.97;5068799;28;20048;-66
2023/09/02 05:15:34;;;;;;;5.85;2.03;;;;;;;10.32;100.00;101370.88;5066737;28;20040;-65
2023/09/02 05:18:00;;;;;;;5.28;2.00;;;;;;;10.25;100.00;101350.97;5069070;28;20056;-66
2023/09/02 05:20:27;;;;;;;6.30;2.38;;;;;;;10.29;100.00;101368.31;5065807;28;20478;-65
2023/09/02 05:22:54;;;;;;;4.72;1.80;;;;;;;10.42;100.00;101374.97;5069039;28;20052;-66
2023/09/02 05:25:20;;;;;;;7.95;2.33;;;;;;;10.25;100.00;101377.13;5069108;28;20055;-66
2023/09/02 05:27:48;;;;;;;6.47;2.10;;;;;;;10.37;100.00;101365.53;5069778;28;20356;-66
2023/09/02 05:30:15;;;;;;;7.22;2.22;;;;;;;10.16;100.00;101366.91;5066942;28;20055;-66
2023/09/02 05:32:41;;;;;;;5.45;1.92;;;;;;;10.16;100.00;101391.31;5050857;28;20051;-66
2023/09/02 05:35:08;;;;;;;8.77;2.15;;;;;;;10.14;100.00;101387.88;5069499;28;20056;-65
2023/09/02 05:37:35;;;;;;;4.50;1.80;;;;;;;10.26;100.00;101391.94;5069513;28;20045;-66
2023/09/02 05:40:02;;;;;;;6.07;2.00;;;;;;;10.26;100.00;101391.94;5063936;28;20055;-66
2023/09/02 05:42:29;;;;;;;5.85;1.90;;;;;;;10.29;100.00;101391.88;5063954;28;20075;-66
2023/09/02 05:44:55;;;;;;;6.22;2.25;;;;;;;10.35;100.00;101394.34;5069612;28;20044;-66
2023/09/02 05:47:22;;;;;;;5.68;2.22;;;;;;;10.34;100.00;101402.25;5069443;28;20139;-66
2023/09/02 05:49:49;;;;;;;5.68;1.80;;;;;;;10.31;100.00;101404.94;5069475;28;20055;-66
2023/09/02 05:52:15;;;;;;;6.07;1.80;;;;;;;10.14;100.00;101397.50;5069074;28;20390;-66
2023/09/02 05:54:42;;;;;;;5.43;1.90;;;;;;;10.24;100.00;101389.38;5050957;28;20045;-66
2023/09/02 05:57:09;;;;;;;5.22;1.92;;;;;;;10.50;100.00;101407.94;5069171;28;20053;-66
2023/09/02 05:59:36;;;;;;;4.30;1.70;;;;;;;10.75;100.00;101413.41;5069568;28;20056;-66
2023/09/02 06:02:03;;;;;;;4.72;1.70;;;;;;;10.77;100.00;101414.22;5069119;28;20052;-65
2023/09/02 06:04:30;;;;;;;5.50;1.85;;;;;;;10.62;100.00;101415.47;5069610;28;20065;-66
2023/09/02 06:06:56;;;;;;;6.72;2.10;;;;;;;10.68;100.00;101417.94;5069471;28;20400;-66
2023/09/02 06:09:26;;;;;;;4.22;1.90;;;;;;;10.93;100.00;101422.50;5069950;28;20044;-66
2023/09/02 06:11:53;;;;;;;5.63;2.03;;;;;;;10.85;100.00;101421.84;5059946;28;20048;-66
2023/09/02 06:14:20;;;;;;;3.85;1.60;;;;;;;10.81;100.00;101410.59;5063620;28;20468;-66
2023/09/02 06:16:46;;;;;;;4.13;1.70;;;;;;;10.92;100.00;101426.00;5062422;28;20059;-65
2023/09/02 06:19:13;;;;;;;5.63;2.13;;;;;;;10.93;100.00;101438.22;5069023;28;20128;-65
2023/09/02 06:21:39;;;;;;;4.95;1.90;;;;;;;10.89;100.00;101433.94;5069433;28;20049;-66
2023/09/02 06:24:07;;;;;;;5.85;2.15;;;;;;;11.06;100.00;101439.59;5069203;28;20046;-66
2023/09/02 06:26:33;;;;;;;5.30;2.05;;;;;;;11.20;100.00;101439.19;5068358;28;20568;-65
2023/09/02 06:29:00;;;;;;;5.30;1.80;;;;;;;11.29;100.00;101457.28;5068106;28;20051;-65
2023/09/02 06:31:27;;;;;;;7.25;2.20;;;;;;;11.28;100.00;101450.31;5062764;28;20057;-66
2023/09/02 06:33:53;;;;;;;6.00;1.90;;;;;;;11.27;100.00;101447.75;5066853;28;20063;-66
2023/09/02 06:36:21;;;;;;;4.85;2.00;;;;;;;11.23;100.00;101452.22;5069139;28;20098;-66
2023/09/02 06:38:48;;;;;;;6.88;2.05;;;;;;;11.18;100.00;101446.25;5048277;28;20124;-65
2023/09/02 06:41:15;;;;;;;6.13;2.28;;;;;;;11.02;100.00;101453.69;5068339;28;20040;-65
2023/09/02 06:43:43;;;;;;;5.90;2.00;;;;;;;11.05;100.00;101456.22;5070798;28;20135;-65
2023/09/02 06:46:11;;;;;;;5.18;1.67;;;;;;;11.11;100.00;101452.56;5072126;28;20049;-66
2023/09/02 06:48:37;;;;;;;5.82;2.10;;;;;;;11.06;100.00;101455.31;5071663;28;20048;-66
2023/09/02 06:51:04;;;;;;;4.55;1.90;;;;;;;11.09;100.00;101460.47;5069486;28;20052;-66
2023/09/02 06:53:31;;;;;;;5.97;2.33;;;;;;;11.17;100.00;101466.38;5071290;28;20460;-66
2023/09/02 06:55:57;;;;;;;5.97;1.80;;;;;;;11.51;100.00;101448.75;5070394;28;20054;-65
2023/09/02 06:58:24;;;;;;;5.78;2.20;;;;;;;12.53;100.00;101459.53;5054372;28;20469;-66
2023/09/02 07:00:50;;;;;;;7.03;2.00;;;;;;;13.40;100.00;101457.31;5071243;28;20060;-66
2023/09/02 07:03:17;;;;;;;8.07;2.15;;;;;;;13.73;100.00;101459.59;5068150;28;20045;-66
2023/09/02 07:05:44;;;;;;;5.22;1.80;;;;;;;14.62;100.00;101471.75;5071142;28;20075;-66
2023/09/02 07:08:11;;;;;;;3.10;1.40;;;;;;;14.81;100.00;101475.31;5069341;28;20048;-66
2023/09/02 07:10:38;;;;;;;4.47;1.45;;;;;;;15.14;100.00;101479.19;5071381;28;20048;-66
2023/09/02 07:13:04;;;;;;;4.13;1.60;;;;;;;15.59;100.00;101483.28;5070986;28;20127;-66
2023/09/02 07:15:31;;;;;;;5.32;1.65;;;;;;;16.08;100.00;101494.16;5071084;28;20409;-66
2023/09/02 07:17:58;;;;;;;2.83;1.30;;;;;;;16.35;100.00;101506.94;5071086;28;20045;-66
2023/09/02 07:20:24;;;;;;;6.70;1.63;;;;;;;16.44;100.00;101500.34;5070463;28;20128;-66
2023/09/02 07:22:51;;;;;;;7.20;1.50;;;;;;;16.44;100.00;101493.28;5071236;28;20075;-67
2023/09/02 07:25:18;;;;;;;4.15;1.50;;;;;;;16.59;100.00;101502.22;5069817;28;20049;-66
2023/09/02 07:27:45;;;;;;;4.13;1.40;;;;;;;16.37;100.00;101505.09;5070452;28;20462;-66
2023/09/02 07:30:12;;;;;;;5.10;1.40;;;;;;;16.59;100.00;101496.94;5069717;28;20400;-66
2023/09/02 07:32:38;;;;;;;4.93;1.45;;;;;;;16.90;100.00;101498.03;5070361;28;20055;-67
2023/09/02 07:35:05;;;;;;;5.28;1.75;;;;;;;16.95;100.00;101503.09;5071407;28;20151;-66
2023/09/02 07:37:32;;;;;;;5.53;1.60;;;;;;;17.06;100.00;101506.03;5053851;28;20079;-66
2023/09/02 07:39:59;;;;;;;5.63;1.40;;;;;;;16.83;100.00;101496.63;5069436;28;20417;-66
2023/09/02 07:42:25;;;;;;;10.02;1.85;;;;;;;16.59;100.00;101504.00;5068585;28;20049;-67
2023/09/02 07:44:52;;;;;;;4.40;1.40;;;;;;;16.23;100.00;101508.41;5053495;28;20048;-67
2023/09/02 07:47:19;;;;;;;4.55;1.40;;;;;;;16.79;100.00;101493.28;5069401;28;20521;-67
2023/09/02 07:49:46;;;;;;;5.32;1.55;;;;;;;17.42;100.00;101515.56;5070863;28;20057;-66
2023/09/02 07:52:13;;;;;;;3.42;1.30;;;;;;;17.52;100.00;101506.19;5071256;28;20044;-67
2023/09/02 07:54:39;;;;;;;4.68;1.35;;;;;;;17.70;100.00;101512.28;5069939;28;20056;-67
2023/09/02 07:57:06;;;;;;;3.33;1.30;;;;;;;17.79;100.00;101506.47;5070930;28;20040;-67
2023/09/02 07:59:33;;;;;;;3.47;1.23;;;;;;;17.80;100.00;101512.63;5071475;28;20049;-67
2023/09/02 08:02:00;;;;;;;7.10;1.50;;;;;;;17.73;100.00;101512.13;5066897;28;20083;-67
2023/09/02 08:04:26;;;;;;;4.22;1.25;;;;;;;18.11;100.00;101522.38;5070799;28;20052;-66
2023/09/02 08:06:53;;;;;;;5.45;1.30;;;;;;;18.11;100.00;101517.06;5070695;28;20041;-67
2023/09/02 08:09:19;;;;;;;1.75;0.85;;;;;;;17.90;100.00;101520.94;5061661;28;20076;-67
2023/09/02 08:11:46;;;;;;;7.03;1.42;;;;;;;17.44;100.00;101509.28;5069428;28;20046;-65
2023/09/02 08:14:13;;;;;;;6.05;1.58;;;;;;;17.83;100.00;101520.41;5070237;28;20044;-66
2023/09/02 08:16:39;;;;;;;4.55;1.20;;;;;;;18.59;100.00;101514.31;5070607;28;20408;-67
2023/09/02 08:19:06;;;;;;;4.15;1.25;;;;;;;18.64;100.00;101508.75;5070070;28;20044;-67
2023/09/02 08:21:33;;;;;;;4.10;1.17;;;;;;;18.70;100.00;101511.91;5065580;28;20052;-67
2023/09/02 08:24:00;;;;;;;3.15;1.08;;;;;;;19.14;100.00;101518.13;5067433;28;20053;-67
2023/09/02 08:26:26;;;;;;;4.22;1.30;;;;;;;18.92;100.00;101514.13;5070161;28;20048;-67
2023/09/02 08:28:53;;;;;;;3.67;1.38;;;;;;;19.14;100.00;101518.13;5069648;28;20053;-67
2023/09/02 08:31:20;;;;;;;2.55;1.00;;;;;;;19.45;100.00;101511.78;5069251;28;20497;-66
2023/09/02 08:33:47;;;;;;;2.75;1.10;;;;;;;19.33;100.00;101507.25;5064853;28;20083;-67
2023/09/02 08:36:17;;;;;;;3.65;1.30;;;;;;;19.30;100.00;101516.25;5069941;28;20442;-67
2023/09/02 08:38:44;;;;;;;4.50;1.20;;;;;;;19.12;100.00;101507.63;5051699;28;20052;-66
2023/09/02 08:41:26;;;;;;;4.20;1.20;;;;;;;18.94;100.00;101506.94;5069249;28;20053;-67
2023/09/02 08:43:54;;;;;;;4.30;1.05;;;;;;;19.14;100.00;101520.78;5070150;28;20522;-67
2023/09/02 08:46:25;;;;;;;2.65;1.10;;;;;;;19.80;100.00;101511.38;5039481;28;20055;-67
2023/09/02 08:48:55;;;;;;;4.00;1.15;;;;;;;20.20;100.00;101516.78;5063988;28;20067;-67
2023/09/02 08:51:22;;;;;;;5.28;1.33;;;;;;;19.75;100.00;101513.47;5066715;28;20497;-67
2023/09/02 08:53:52;;;;;;;4.93;1.33;;;;;;;19.63;100.00;101506.25;5069748;28;20048;-66
2023/09/02 08:56:20;;;;;;;2.22;0.90;;;;;;;20.00;100.00;101507.44;5064275;28;20057;-67
2023/09/02 08:58:49;;;;;;;3.92;1.20;;;;;;;20.14;100.00;101517.16;5069611;28;20124;-66
2023/09/02 09:01:21;;;;;;;6.82;1.30;;;;;;;20.03;100.00;101506.41;5069472;28;20048;-68
2023/09/02 09:03:52;;;;;;;6.30;1.67;;;;;;;19.96;100.00;101510.41;5069354;28;20055;-67
2023/09/02 09:06:23;;;;;;;3.95;1.27;;;;;;;20.15;100.00;101505.59;5059775;28;20343;-67
2023/09/02 09:08:52;;;;;;;3.75;1.30;;;;;;;20.49;100.00;101512.16;5048835;28;20409;-67
2023/09/02 09:11:21;;;;;;;5.55;1.77;;;;;;;20.40;100.00;101509.28;5064144;28;20048;-66
2023/09/02 09:13:49;;;;;;;5.18;1.48;;;;;;;20.14;100.00;101493.25;5065659;28;20052;-67
2023/09/02 09:16:22;;;;;;;5.57;1.60;;;;;;;20.47;100.00;101502.59;5069281;28;20466;-67
2023/09/02 09:18:49;;;;;;;;;;;;;;;20.49;100.00;101508.66;5070644;28;20489;-67
2023/09/02 09:21:17;;;;;;;5.35;1.55;;;;;;;19.66;100.00;101501.59;5068971;28;19920;-66
2023/09/02 09:23:44;;;;;;;2.67;1.10;;;;;;;20.05;100.00;101489.38;5066608;28;20489;-66
2023/09/02 09:26:14;;;;;;;5.00;1.35;;;;;;;20.04;100.00;101502.75;5069465;28;20059;-66
2023/09/02 09:28:58;;;;;;;4.30;1.20;;;;;;;20.04;100.00;101495.66;5068953;28;20054;-66
2023/09/02 09:31:25;;;;;;;3.35;1.05;;;;;;;19.67;100.00;101495.34;5067365;28;20059;-66
2023/09/02 09:34:01;;;;;;;4.25;1.40;;;;;;;19.47;100.00;101495.75;5050491;28;20048;-66
2023/09/02 09:36:30;;;;;;;2.97;1.08;;;;;;;20.07;100.00;101491.94;5068098;28;20036;-66
2023/09/02 09:38:58;;;;;;;4.10;1.38;;;;;;;20.27;100.00;101494.16;5068649;28;20052;-66
2023/09/02 09:41:26;;;;;;;3.20;1.17;;;;;;;20.09;100.00;101503.31;5064024;28;20048;-66
2023/09/02 09:44:06;;;;;;;3.35;1.27;;;;;;;19.80;100.00;101503.41;5068669;28;20049;-66
2023/09/02 09:46:53;;;;;;;4.85;1.30;;;;;;;20.20;100.00;101502.59;5069694;28;20072;-66
2023/09/02 09:49:29;;;;;;;2.80;1.10;;;;;;;20.05;100.00;101501.81;5058722;28;20485;-66
2023/09/02 09:52:02;;;;;;;3.13;1.20;;;;;;;20.04;100.00;101503.63;5063701;28;20055;-66
2023/09/02 09:54:52;;;;;;;;;;;;;;;20.04;100.00;101514.28;5069748;28;20632;-66
2023/09/02 09:57:34;;;;;;;3.40;1.20;;;;;;;19.60;100.00;101504.66;5055543;28;19928;-66
2023/09/02 10:00:01;;;;;;;4.20;1.40;;;;;;;19.85;100.00;101505.78;5062066;28;20052;-66
2023/09/02 10:02:28;;;;;;;6.35;1.52;;;;;;;19.63;100.00;101514.22;5058319;28;20052;-66
2023/09/02 10:04:59;;;;;;;4.38;1.25;;;;;;;19.98;100.00;101500.53;5067486;28;20048;-66
2023/09/02 10:07:32;;;;;;;4.32;1.20;;;;;;;20.41;100.00;101506.50;5068288;28;20059;-66
2023/09/02 10:10:00;;;;;;;3.97;1.15;;;;;;;20.34;100.00;101499.03;5067758;28;20148;-66
2023/09/02 10:12:33;;;;;;;3.33;1.10;;;;;;;20.15;100.00;101486.97;5062392;28;20060;-66
2023/09/02 10:15:06;;;;;;;3.40;1.17;;;;;;;19.84;100.00;101490.78;5065381;28;20132;-66
2023/09/02 10:17:34;;;;;;;3.28;0.90;;;;;;;20.10;100.00;101494.41;5062673;28;20279;-66
2023/09/02 10:20:01;;;;;;;4.40;1.10;;;;;;;20.30;100.00;101501.06;5065475;28;20049;-66
2023/09/02 10:22:31;;;;;;;3.85;1.05;;;;;;;20.25;100.00;101501.34;5070381;28;20048;-66
2023/09/02 10:25:24;;;;;;;2.58;0.93;;;;;;;20.19;100.00;101499.09;5071496;28;20413;-66
2023/09/02 10:28:04;;;;;;;3.67;1.10;;;;;;;20.76;100.00;101497.13;5070044;28;20127;-66
2023/09/02 10:30:46;;;;;;;3.78;1.00;;;;;;;20.46;100.00;101493.75;5071425;28;20505;-66
2023/09/02 10:33:38;;;;;;;3.63;1.10;;;;;;;21.03;100.00;101492.56;5072000;28;20523;-66
2023/09/02 10:36:06;;;;;;;3.85;0.90;;;;;;;20.81;100.00;101481.69;5071707;28;20052;-66
2023/09/02 10:38:37;;;;;;;2.97;0.90;;;;;;;21.01;100.00;101472.31;5071729;28;21010;-66
2023/09/02 10:41:23;;;;;;;2.35;1.00;;;;;;;20.64;100.00;101474.88;5071004;28;20067;-66
2023/09/02 10:43:50;;;;;;;3.45;1.10;;;;;;;20.64;100.00;101473.03;5071790;28;20048;-66
2023/09/02 10:46:17;;;;;;;6.70;1.33;;;;;;;20.43;100.00;101455.88;5070255;28;20044;-66
2023/09/02 10:48:45;;;;;;;5.10;1.30;;;;;;;20.49;100.00;101453.66;5069519;28;20098;-66
2023/09/02 10:51:12;;;;;;;3.67;1.20;;;;;;;20.53;100.00;101456.94;5066144;28;20067;-66
2023/09/02 10:53:50;;;;;;;2.72;1.08;;;;;;;20.79;100.00;101462.34;5072207;28;20052;-66
2023/09/02 10:56:27;;;;;;;3.08;1.00;;;;;;;21.06;100.00;101462.19;5071339;28;20052;-69
2023/09/02 10:58:54;;;;;;;3.80;1.10;;;;;;;21.07;100.00;101465.72;5071669;28;20072;-70
2023/09/02 11:01:22;;;;;;;2.28;0.90;;;;;;;21.54;100.00;101453.50;5071890;28;20051;-70
2023/09/02 11:03:51;;;;;;;3.78;0.90;;;;;;;21.59;100.00;101462.84;5072293;28;20056;-70
2023/09/02 11:06:18;;;;;;;3.78;1.10;;;;;;;21.73;100.00;101448.53;5070332;28;20065;-69
2023/09/02 11:08:52;;;;;;;5.68;1.00;;;;;;;21.69;100.00;101447.06;5070489;28;20049;-69
2023/09/02 11:11:20;;;;;;;2.22;0.80;;;;;;;21.52;100.00;101445.63;5068576;28;20056;-69
2023/09/02 11:14:06;;;;;;;4.03;1.20;;;;;;;21.60;100.00;101469.03;5067091;28;20059;-69
2023/09/02 11:16:38;;;;;;;2.40;1.00;;;;;;;22.07;100.00;101458.50;5064781;28;20052;-69
2023/09/02 11:19:08;;;;;;;2.70;0.90;;;;;;;21.84;100.00;101471.72;5070420;28;20059;-68
2023/09/02 11:21:39;;;;;;;6.45;0.90;;;;;;;21.55;100.00;101464.06;5070271;28;20131;-68
2023/09/02 11:24:16;;;;;;;2.10;0.80;;;;;;;21.68;100.00;101469.34;5070455;28;20489;-66